createdAt,value
2018-09-14T00:00:59.871Z,6.90
2018-09-14T00:02:04.182Z,9.38
2018-09-14T00:03:08.391Z,9.33
2018-09-14T00:04:12.586Z,8.70
2018-09-14T00:05:17.030Z,7.58
2018-09-14T00:06:21.346Z,8.15
2018-09-14T00:07:25.762Z,7.50
2018-09-14T00:08:30.046Z,10.08
2018-09-14T00:09:34.460Z,9.35
2018-09-14T00:10:38.663Z,9.18
2018-09-14T00:11:43.246Z,11.63
2018-09-14T00:12:47.741Z,11.30
2018-09-14T00:13:52.077Z,12.68
2018-09-14T00:14:56.604Z,13.90
2018-09-14T00:16:00.752Z,11.95
2018-09-14T00:17:05.230Z,12.25
2018-09-14T00:18:09.464Z,10.43
2018-09-14T00:19:13.821Z,15.03
2018-09-14T00:20:18.281Z,15.50
2018-09-14T00:21:22.567Z,14.80
2018-09-14T00:22:27.614Z,14.28
2018-09-14T00:23:32.098Z,15.60
2018-09-14T00:24:36.661Z,13.58
2018-09-14T00:25:41.016Z,14.45
2018-09-14T00:26:45.557Z,14.93
2018-09-14T00:27:49.859Z,15.63
2018-09-14T00:28:54.482Z,15.32
2018-09-14T00:29:58.857Z,16.42
2018-09-14T00:31:02.982Z,16.07
2018-09-14T00:32:07.817Z,15.65
2018-09-14T00:33:12.663Z,15.70
2018-09-14T00:34:16.918Z,15.78
2018-09-14T00:35:21.260Z,17.60
2018-09-14T00:36:26.264Z,18.30
2018-09-14T00:37:30.723Z,18.75
2018-09-14T00:38:35.212Z,18.35
2018-09-14T00:39:39.360Z,18.00
2018-09-14T00:40:44.522Z,19.70
2018-09-14T00:41:48.808Z,18.95
2018-09-14T00:42:52.976Z,19.67
2018-09-14T00:43:57.631Z,19.17
2018-09-14T00:45:01.908Z,20.70
2018-09-14T00:46:06.200Z,19.12
2018-09-14T00:47:10.442Z,20.82
2018-09-14T00:48:14.758Z,19.42
2018-09-14T00:49:19.803Z,21.68
2018-09-14T00:50:24.145Z,20.92
2018-09-14T00:51:29.033Z,20.80
2018-09-14T00:52:33.154Z,22.82
2018-09-14T00:53:37.600Z,21.12
2018-09-14T00:54:48.395Z,21.02
2018-09-14T00:55:52.639Z,21.20
2018-09-14T00:56:56.862Z,23.02
2018-09-14T00:58:01.507Z,20.50
2018-09-14T00:59:05.832Z,19.45
2018-09-14T01:00:10.571Z,21.50
2018-09-14T01:01:15.280Z,21.73
2018-09-14T01:02:19.619Z,22.07
2018-09-14T01:03:23.886Z,21.80
2018-09-14T01:04:28.207Z,22.80
2018-09-14T01:05:32.631Z,23.10
2018-09-14T01:06:36.869Z,21.37
2018-09-14T01:07:41.335Z,23.45
2018-09-14T01:08:46.871Z,23.27
2018-09-14T01:09:51.038Z,21.45
2018-09-14T01:10:55.146Z,22.50
2018-09-14T01:11:59.771Z,22.20
2018-09-14T01:13:03.957Z,24.18
2018-09-14T01:14:08.438Z,23.42
2018-09-14T01:15:12.625Z,23.98
2018-09-14T01:16:17.033Z,25.82
2018-09-14T01:17:21.497Z,24.77
2018-09-14T01:18:25.473Z,23.87
2018-09-14T01:19:29.691Z,24.90
2018-09-14T01:20:33.991Z,25.37
2018-09-14T01:21:38.184Z,24.80
2018-09-14T01:22:42.561Z,24.37
2018-09-14T01:23:46.921Z,24.80
2018-09-14T01:24:51.083Z,24.67
2018-09-14T01:25:55.385Z,24.18
2018-09-14T01:26:59.847Z,24.40
2018-09-14T01:28:04.048Z,23.73
2018-09-14T01:29:08.418Z,26.35
2018-09-14T01:30:12.637Z,24.47
2018-09-14T01:31:16.974Z,25.43
2018-09-14T01:32:21.389Z,25.43
2018-09-14T01:33:25.565Z,24.95
2018-09-14T01:34:30.017Z,26.77
2018-09-14T01:35:39.929Z,25.82
2018-09-14T01:36:44.162Z,26.75
2018-09-14T01:37:48.307Z,27.95
2018-09-14T01:38:52.760Z,27.82
2018-09-14T01:39:56.873Z,25.20
2018-09-14T01:41:00.953Z,27.80
2018-09-14T01:42:05.231Z,29.65
2018-09-14T01:43:09.583Z,27.70
2018-09-14T01:44:13.880Z,25.85
2018-09-14T01:45:17.938Z,23.87
2018-09-14T01:46:22.329Z,27.48
2018-09-14T01:47:26.612Z,27.50
2018-09-14T01:48:30.828Z,27.95
2018-09-14T01:49:35.022Z,26.65
2018-09-14T01:50:39.298Z,26.23
2018-09-14T01:51:43.593Z,27.22
2018-09-14T01:52:48.003Z,26.40
2018-09-14T01:53:52.632Z,24.85
2018-09-14T01:54:56.898Z,23.80
2018-09-14T01:56:01.055Z,23.30
2018-09-14T01:57:05.489Z,22.98
2018-09-14T01:58:09.748Z,24.50
2018-09-14T01:59:14.057Z,25.70
2018-09-14T02:00:18.199Z,22.93
2018-09-14T02:01:22.518Z,22.90
2018-09-14T02:02:26.833Z,23.73
2018-09-14T02:03:31.145Z,21.93
2018-09-14T02:04:35.227Z,22.93
2018-09-14T02:05:39.541Z,21.93
2018-09-14T02:06:43.874Z,21.27
2018-09-14T02:07:48.042Z,21.00
2018-09-14T02:08:52.406Z,22.52
2018-09-14T02:09:56.625Z,21.90
2018-09-14T02:11:00.765Z,20.80
2018-09-14T02:12:05.208Z,22.55
2018-09-14T02:13:09.380Z,20.12
2018-09-14T02:14:13.874Z,22.07
2018-09-14T02:15:18.469Z,18.12
2018-09-14T02:16:22.799Z,18.17
2018-09-14T02:17:26.908Z,19.32
2018-09-14T02:18:31.397Z,19.17
2018-09-14T02:19:35.561Z,16.75
2018-09-14T02:20:40.714Z,18.05
2018-09-14T02:21:45.161Z,17.60
2018-09-14T02:22:49.392Z,18.77
2018-09-14T02:23:53.917Z,19.10
2018-09-14T02:24:58.537Z,18.57
2018-09-14T02:26:02.590Z,18.90
2018-09-14T02:27:06.697Z,19.12
2018-09-14T02:28:11.076Z,17.10
2018-09-14T02:29:15.552Z,18.80
2018-09-14T02:30:19.758Z,18.05
2018-09-14T02:31:24.146Z,19.02
2018-09-14T02:32:28.386Z,20.77
2018-09-14T02:33:32.884Z,18.67
2018-09-14T02:34:37.187Z,19.50
2018-09-14T02:35:41.398Z,17.60
2018-09-14T02:36:45.645Z,19.87
2018-09-14T02:37:49.851Z,19.45
2018-09-14T02:38:54.145Z,16.67
2018-09-14T02:39:58.502Z,17.90
2018-09-14T02:41:03.063Z,17.65
2018-09-14T02:42:07.262Z,16.55
2018-09-14T02:43:11.446Z,13.78
2018-09-14T02:44:15.672Z,14.58
2018-09-14T02:45:19.970Z,13.13
2018-09-14T02:46:24.197Z,15.60
2018-09-14T02:47:28.509Z,15.28
2018-09-14T02:48:32.721Z,13.58
2018-09-14T02:49:36.836Z,14.93
2018-09-14T02:50:41.013Z,15.55
2018-09-14T02:51:45.409Z,15.25
2018-09-14T02:52:49.658Z,14.98
2018-09-14T02:53:54.116Z,13.90
2018-09-14T02:54:58.317Z,14.75
2018-09-14T02:56:02.656Z,13.35
2018-09-14T02:57:06.722Z,14.10
2018-09-14T02:58:11.067Z,13.95
2018-09-14T02:59:15.121Z,13.40
2018-09-14T03:00:19.348Z,14.65
2018-09-14T03:01:23.621Z,14.18
2018-09-14T03:02:28.109Z,13.95
2018-09-14T03:03:32.640Z,13.93
2018-09-14T03:04:37.222Z,13.03
2018-09-14T03:05:41.356Z,14.45
2018-09-14T03:06:45.668Z,12.18
2018-09-14T03:07:49.892Z,12.43
2018-09-14T03:08:54.275Z,10.80
2018-09-14T03:09:59.038Z,12.75
2018-09-14T03:11:03.374Z,11.43
2018-09-14T03:12:07.707Z,11.70
2018-09-14T03:13:12.161Z,11.18
2018-09-14T03:14:16.348Z,13.15
2018-09-14T03:15:20.568Z,11.65
2018-09-14T03:16:24.822Z,11.63
2018-09-14T03:17:29.033Z,13.38
2018-09-14T03:18:33.163Z,12.80
2018-09-14T03:19:37.402Z,12.98
2018-09-14T03:20:41.462Z,12.90
2018-09-14T03:21:45.616Z,12.85
2018-09-14T03:22:49.825Z,13.98
2018-09-14T03:23:54.089Z,13.88
2018-09-14T03:24:58.177Z,14.13
2018-09-14T03:26:02.346Z,13.93
2018-09-14T03:27:06.646Z,14.75
2018-09-14T03:28:11.057Z,13.68
2018-09-14T03:29:15.465Z,13.35
2018-09-14T03:30:19.935Z,13.00
2018-09-14T03:31:24.392Z,12.75
2018-09-14T03:32:29.009Z,14.30
2018-09-14T03:33:33.302Z,14.73
2018-09-14T03:34:37.677Z,13.38
2018-09-14T03:35:41.977Z,14.70
2018-09-14T03:36:46.164Z,13.53
2018-09-14T03:37:50.653Z,15.03
2018-09-14T03:38:54.877Z,13.60
2018-09-14T03:39:59.065Z,12.10
2018-09-14T03:41:03.475Z,13.43
2018-09-14T03:42:07.722Z,12.60
2018-09-14T03:43:11.949Z,10.50
2018-09-14T03:44:16.143Z,11.73
2018-09-14T03:45:21.875Z,11.53
2018-09-14T03:46:26.207Z,10.70
2018-09-14T03:47:30.505Z,9.65
2018-09-14T03:48:34.850Z,11.15
2018-09-14T03:49:39.074Z,11.05
2018-09-14T03:50:43.655Z,10.38
2018-09-14T03:51:48.134Z,12.35
2018-09-14T03:52:52.617Z,10.85
2018-09-14T03:53:56.882Z,10.55
2018-09-14T03:55:01.175Z,9.78
2018-09-14T03:56:05.318Z,9.58
2018-09-14T03:57:10.055Z,9.35
2018-09-14T03:58:14.494Z,9.55
2018-09-14T03:59:18.922Z,8.83
2018-09-14T04:00:23.101Z,10.00
2018-09-14T04:01:27.278Z,9.23
2018-09-14T04:02:31.528Z,10.03
2018-09-14T04:03:36.137Z,10.13
2018-09-14T04:04:40.595Z,10.53
2018-09-14T04:05:45.008Z,9.13
2018-09-14T04:06:50.539Z,9.05
2018-09-14T04:07:54.938Z,9.08
2018-09-14T04:08:59.438Z,9.65
2018-09-14T04:10:03.732Z,9.40
2018-09-14T04:11:08.001Z,9.48
2018-09-14T04:12:12.231Z,9.75
2018-09-14T04:13:16.304Z,9.83
2018-09-14T04:14:20.707Z,10.60
2018-09-14T04:15:25.758Z,9.20
2018-09-14T04:16:29.833Z,8.98
2018-09-14T04:17:34.045Z,9.80
2018-09-14T04:18:38.439Z,9.45
2018-09-14T04:19:42.892Z,10.43
2018-09-14T04:20:47.002Z,9.50
2018-09-14T04:21:51.353Z,10.03
2018-09-14T04:22:55.485Z,9.10
2018-09-14T04:23:59.687Z,9.55
2018-09-14T04:25:04.728Z,8.93
2018-09-14T04:26:09.422Z,10.55
2018-09-14T04:27:13.591Z,10.50
2018-09-14T04:28:18.042Z,9.98
2018-09-14T04:29:22.191Z,10.23
2018-09-14T04:30:26.383Z,10.60
2018-09-14T04:31:30.832Z,10.20
2018-09-14T04:32:35.101Z,10.00
2018-09-14T04:33:39.417Z,10.68
2018-09-14T04:34:43.755Z,9.20
2018-09-14T04:35:48.135Z,10.55
2018-09-14T04:36:52.311Z,9.28
2018-09-14T04:37:56.960Z,10.30
2018-09-14T04:39:01.410Z,10.35
2018-09-14T04:40:05.706Z,10.48
2018-09-14T04:41:09.885Z,9.05
2018-09-14T04:42:14.073Z,9.93
2018-09-14T04:43:18.310Z,10.20
2018-09-14T04:44:22.602Z,10.10
2018-09-14T04:45:26.727Z,11.18
2018-09-14T04:46:31.161Z,11.75
2018-09-14T04:47:35.369Z,11.45
2018-09-14T04:48:39.771Z,10.25
2018-09-14T04:49:44.203Z,9.38
2018-09-14T04:50:48.297Z,9.70
2018-09-14T04:51:52.435Z,11.03
2018-09-14T04:52:56.741Z,10.45
2018-09-14T04:54:00.835Z,9.80
2018-09-14T04:55:04.912Z,10.30
2018-09-14T04:56:09.795Z,9.85
2018-09-14T04:57:14.090Z,11.40
2018-09-14T04:58:18.180Z,10.70
2018-09-14T04:59:22.416Z,10.00
2018-09-14T05:00:26.566Z,10.38
2018-09-14T05:01:31.010Z,10.35
2018-09-14T05:02:35.343Z,11.03
2018-09-14T05:03:39.427Z,10.50
2018-09-14T05:04:43.672Z,11.03
2018-09-14T05:05:47.806Z,12.55
2018-09-14T05:06:52.184Z,11.45
2018-09-14T05:07:56.722Z,10.58
2018-09-14T05:09:01.055Z,10.43
2018-09-14T05:10:05.549Z,9.88
2018-09-14T05:11:09.866Z,10.08
2018-09-14T05:12:14.074Z,9.85
2018-09-14T05:13:18.394Z,9.75
2018-09-14T05:14:22.797Z,11.25
2018-09-14T05:15:27.085Z,11.50
2018-09-14T05:16:31.465Z,10.28
2018-09-14T05:17:35.781Z,10.98
2018-09-14T05:18:40.040Z,11.50
2018-09-14T05:19:44.214Z,11.12
2018-09-14T05:20:48.487Z,8.98
2018-09-14T05:21:52.976Z,9.93
2018-09-14T05:22:57.166Z,10.40
2018-09-14T05:24:02.436Z,9.88
2018-09-14T05:25:06.783Z,10.20
2018-09-14T05:26:11.057Z,10.95
2018-09-14T05:27:15.306Z,10.98
2018-09-14T05:28:19.711Z,11.28
2018-09-14T05:29:24.096Z,9.75
2018-09-14T05:30:28.394Z,9.18
2018-09-14T05:31:32.819Z,10.65
2018-09-14T05:32:36.991Z,9.88
2018-09-14T05:33:41.259Z,11.48
2018-09-14T05:34:45.628Z,9.25
2018-09-14T05:35:49.984Z,11.68
2018-09-14T05:36:54.351Z,12.30
2018-09-14T05:37:58.519Z,11.35
2018-09-14T05:39:02.772Z,11.63
2018-09-14T05:40:07.071Z,10.20
2018-09-14T05:41:11.498Z,11.50
2018-09-14T05:42:15.756Z,9.23
2018-09-14T05:43:20.098Z,10.90
2018-09-14T05:44:24.426Z,9.73
2018-09-14T05:45:28.610Z,10.03
2018-09-14T05:46:32.842Z,9.85
2018-09-14T05:47:37.073Z,10.90
2018-09-14T05:48:41.480Z,8.45
2018-09-14T05:49:45.706Z,8.93
2018-09-14T05:50:49.866Z,9.68
2018-09-14T05:51:54.077Z,8.20
2018-09-14T05:52:58.394Z,9.38
2018-09-14T05:54:02.618Z,8.55
2018-09-14T05:55:07.130Z,9.30
2018-09-14T05:56:11.273Z,8.63
2018-09-14T05:57:15.355Z,8.73
2018-09-14T05:58:19.701Z,8.23
2018-09-14T05:59:23.872Z,9.40
2018-09-14T06:00:28.689Z,9.53
2018-09-14T06:01:32.888Z,8.83
2018-09-14T06:02:37.251Z,8.83
2018-09-14T06:03:41.438Z,9.43
2018-09-14T06:04:45.831Z,8.50
2018-09-14T06:05:50.122Z,8.13
2018-09-14T06:06:54.343Z,7.97
2018-09-14T06:07:58.633Z,9.28
2018-09-14T06:09:02.939Z,8.33
2018-09-14T06:10:07.792Z,8.83
2018-09-14T06:11:12.346Z,8.30
2018-09-14T06:12:17.294Z,8.95
2018-09-14T06:13:21.639Z,7.75
2018-09-14T06:14:25.938Z,8.10
2018-09-14T06:15:30.202Z,7.37
2018-09-14T06:16:34.660Z,7.20
2018-09-14T06:17:38.999Z,7.30
2018-09-14T06:18:43.324Z,7.20
2018-09-14T06:19:47.922Z,8.23
2018-09-14T06:20:52.334Z,7.80
2018-09-14T06:21:56.412Z,6.90
2018-09-14T06:23:02.365Z,6.05
2018-09-14T06:24:07.012Z,5.17
2018-09-14T06:25:11.186Z,6.47
2018-09-14T06:26:15.281Z,4.10
2018-09-14T06:27:19.411Z,5.58
2018-09-14T06:28:23.850Z,6.15
2018-09-14T06:29:28.222Z,4.95
2018-09-14T06:30:32.548Z,5.50
2018-09-14T06:31:36.817Z,6.67
2018-09-14T06:32:41.027Z,5.87
2018-09-14T06:33:45.134Z,6.00
2018-09-14T06:34:49.658Z,6.70
2018-09-14T06:35:54.465Z,7.17
2018-09-14T06:36:58.861Z,7.42
2018-09-14T06:38:03.601Z,6.83
2018-09-14T06:39:10.006Z,7.65
2018-09-14T06:40:14.157Z,7.53
2018-09-14T06:41:18.833Z,7.30
2018-09-14T06:42:22.910Z,8.25
2018-09-14T06:43:27.138Z,7.05
2018-09-14T06:44:31.429Z,7.75
2018-09-14T06:45:35.817Z,8.00
2018-09-14T06:46:40.171Z,8.78
2018-09-14T06:47:44.522Z,7.67
2018-09-14T06:48:48.717Z,7.15
2018-09-14T06:49:53.055Z,10.32
2018-09-14T06:50:57.289Z,9.20
2018-09-14T06:52:01.557Z,8.43
2018-09-14T06:53:05.965Z,8.78
2018-09-14T06:54:10.393Z,8.30
2018-09-14T06:55:14.758Z,8.70
2018-09-14T06:56:18.980Z,7.72
2018-09-14T06:57:23.210Z,8.58
2018-09-14T06:58:27.440Z,7.40
2018-09-14T06:59:31.814Z,10.50
2018-09-14T07:00:35.999Z,7.60
2018-09-14T07:01:40.051Z,8.90
2018-09-14T07:02:44.171Z,9.13
2018-09-14T07:03:48.489Z,9.25
2018-09-14T07:04:52.821Z,10.80
2018-09-14T07:05:56.891Z,8.53
2018-09-14T07:07:01.083Z,8.83
2018-09-14T07:08:05.196Z,8.65
2018-09-14T07:09:10.141Z,8.95
2018-09-14T07:10:14.291Z,9.30
2018-09-14T07:11:18.630Z,8.43
2018-09-14T07:12:22.840Z,9.53
2018-09-14T07:13:27.077Z,8.58
2018-09-14T07:14:31.390Z,9.98
2018-09-14T07:15:35.620Z,10.43
2018-09-14T07:16:40.023Z,10.88
2018-09-14T07:17:44.433Z,10.68
2018-09-14T07:18:48.735Z,9.38
2018-09-14T07:19:53.158Z,10.13
2018-09-14T07:20:57.435Z,9.78
2018-09-14T07:22:01.865Z,11.12
2018-09-14T07:23:06.089Z,10.80
2018-09-14T07:24:10.497Z,10.98
2018-09-14T07:25:14.590Z,9.60
2018-09-14T07:26:19.040Z,9.63
2018-09-14T07:27:23.236Z,10.60
2018-09-14T07:28:27.419Z,9.85
2018-09-14T07:29:31.774Z,11.25
2018-09-14T07:30:35.948Z,10.15
2018-09-14T07:31:40.276Z,8.30
2018-09-14T07:32:44.592Z,8.28
2018-09-14T07:33:49.653Z,8.35
2018-09-14T07:34:54.117Z,8.30
2018-09-14T07:35:58.620Z,8.23
2018-09-14T07:37:02.688Z,9.68
2018-09-14T07:38:06.953Z,8.18
2018-09-14T07:39:11.983Z,7.72
2018-09-14T07:40:16.261Z,9.38
2018-09-14T07:41:20.618Z,9.33
2018-09-14T07:42:25.036Z,9.88
2018-09-14T07:43:29.548Z,9.63
2018-09-14T07:44:33.883Z,10.40
2018-09-14T07:45:38.291Z,9.60
2018-09-14T07:46:42.640Z,10.05
2018-09-14T07:47:47.198Z,9.15
2018-09-14T07:48:51.556Z,8.55
2018-09-14T07:49:55.906Z,10.13
2018-09-14T07:51:00.218Z,9.48
2018-09-14T07:52:04.543Z,9.08
2018-09-14T07:53:08.870Z,8.05
2018-09-14T07:54:13.428Z,8.78
2018-09-14T07:55:17.572Z,8.15
2018-09-14T07:56:21.847Z,7.80
2018-09-14T07:57:26.188Z,8.80
2018-09-14T07:58:30.479Z,8.23
2018-09-14T07:59:34.579Z,7.85
2018-09-14T08:00:38.946Z,7.75
2018-09-14T08:01:43.065Z,7.87
2018-09-14T08:02:47.508Z,7.45
2018-09-14T08:03:51.981Z,7.95
2018-09-14T08:04:56.158Z,7.30
2018-09-14T08:06:00.378Z,7.03
2018-09-14T08:07:04.538Z,6.72
2018-09-14T08:08:08.733Z,6.80
2018-09-14T08:09:14.121Z,6.40
2018-09-14T08:10:18.327Z,6.70
2018-09-14T08:11:22.843Z,6.75
2018-09-14T08:12:27.048Z,6.92
2018-09-14T08:13:31.258Z,5.85
2018-09-14T08:14:35.743Z,5.53
2018-09-14T08:15:40.073Z,6.78
2018-09-14T08:16:44.336Z,6.67
2018-09-14T08:17:48.634Z,5.55
2018-09-14T08:18:53.074Z,5.97
2018-09-14T08:19:57.195Z,7.25
2018-09-14T08:21:01.728Z,7.40
2018-09-14T08:22:05.959Z,7.30
2018-09-14T08:23:10.092Z,7.70
2018-09-14T08:24:14.702Z,6.40
2018-09-14T08:25:19.018Z,6.25
2018-09-14T08:26:23.277Z,8.03
2018-09-14T08:27:27.421Z,7.00
2018-09-14T08:28:31.948Z,6.80
2018-09-14T08:29:36.152Z,6.50
2018-09-14T08:30:40.357Z,6.15
2018-09-14T08:31:44.571Z,10.28
2018-09-14T08:32:48.740Z,8.28
2018-09-14T08:33:53.156Z,7.80
2018-09-14T08:34:57.646Z,7.37
2018-09-14T08:36:01.799Z,6.28
2018-09-14T08:37:06.378Z,6.37
2018-09-14T08:38:10.741Z,6.83
2018-09-14T08:39:14.901Z,6.20
2018-09-14T08:40:19.224Z,6.58
2018-09-14T08:41:23.408Z,7.47
2018-09-14T08:42:27.619Z,7.17
2018-09-14T08:43:31.727Z,8.00
2018-09-14T08:44:35.846Z,7.62
2018-09-14T08:45:39.968Z,8.25
2018-09-14T08:46:44.067Z,6.53
2018-09-14T08:47:48.344Z,7.70
2018-09-14T08:48:52.469Z,8.55
2018-09-14T08:49:56.773Z,8.23
2018-09-14T08:51:01.255Z,9.03
2018-09-14T08:52:05.776Z,11.00
2018-09-14T08:53:09.921Z,7.95
2018-09-14T08:54:14.395Z,9.33
2018-09-14T08:55:18.521Z,8.98
2018-09-14T08:56:22.892Z,8.35
2018-09-14T08:57:27.219Z,8.15
2018-09-14T08:58:31.543Z,9.40
2018-09-14T08:59:35.603Z,9.40
2018-09-14T09:00:40.070Z,8.28
2018-09-14T09:01:44.570Z,7.80
2018-09-14T09:02:48.913Z,7.67
2018-09-14T09:03:53.220Z,7.95
2018-09-14T09:04:57.394Z,11.40
2018-09-14T09:06:01.785Z,7.92
2018-09-14T09:07:06.279Z,9.85
2018-09-14T09:08:10.474Z,8.70
2018-09-14T09:09:14.942Z,8.18
2018-09-14T09:10:19.463Z,10.30
2018-09-14T09:11:23.785Z,8.43
2018-09-14T09:12:28.212Z,9.05
2018-09-14T09:13:32.398Z,8.30
2018-09-14T09:14:36.605Z,8.05
2018-09-14T09:15:40.973Z,8.68
2018-09-14T09:16:45.369Z,7.67
2018-09-14T09:17:49.888Z,7.85
2018-09-14T09:18:54.450Z,7.15
2018-09-14T09:19:58.758Z,9.73
2018-09-14T09:21:03.120Z,9.10
2018-09-14T09:22:07.869Z,7.65
2018-09-14T09:23:12.053Z,7.85
2018-09-14T09:24:16.365Z,6.37
2018-09-14T09:25:20.704Z,6.67
2018-09-14T09:26:25.375Z,7.37
2018-09-14T09:27:29.517Z,7.60
2018-09-14T09:28:33.823Z,6.22
2018-09-14T09:29:38.349Z,7.33
2018-09-14T09:30:42.590Z,6.35
2018-09-14T09:31:46.905Z,9.45
2018-09-14T09:32:51.129Z,19.92
2018-09-14T09:33:55.741Z,8.35
2018-09-14T09:35:00.120Z,7.67
2018-09-14T09:36:04.268Z,6.75
2018-09-14T09:37:08.714Z,6.47
2018-09-14T09:38:12.941Z,6.75
2018-09-14T09:39:17.179Z,7.05
2018-09-14T09:40:21.405Z,5.83
2018-09-14T09:41:26.250Z,6.25
2018-09-14T09:42:30.803Z,6.40
2018-09-14T09:43:35.208Z,7.12
2018-09-14T09:44:39.525Z,5.42
2018-09-14T09:45:43.723Z,6.70
2018-09-14T09:46:48.196Z,6.08
2018-09-14T09:47:52.408Z,6.62
2018-09-14T09:48:56.613Z,7.00
2018-09-14T09:50:01.151Z,9.95
2018-09-14T09:51:05.604Z,6.83
2018-09-14T09:52:09.684Z,7.60
2018-09-14T09:53:13.966Z,7.50
2018-09-14T09:54:18.762Z,7.72
2018-09-14T09:55:22.905Z,8.93
2018-09-14T09:56:27.284Z,9.23
2018-09-14T09:57:31.564Z,8.73
2018-09-14T09:58:35.808Z,7.50
2018-09-14T09:59:40.204Z,9.55
2018-09-14T10:00:49.826Z,7.75
2018-09-14T10:01:59.420Z,7.80
2018-09-14T10:03:08.949Z,7.45
2018-09-14T10:04:18.654Z,6.83
2018-09-14T10:05:28.346Z,6.62
2018-09-14T10:06:32.518Z,8.23
2018-09-14T10:07:36.726Z,10.40
2018-09-14T10:08:40.991Z,7.15
2018-09-14T10:09:45.235Z,8.03
2018-09-14T10:10:49.366Z,7.28
2018-09-14T10:11:53.643Z,6.70
2018-09-14T10:12:57.912Z,7.28
2018-09-14T10:14:02.574Z,8.70
2018-09-14T10:15:07.067Z,8.55
2018-09-14T10:16:11.444Z,6.65
2018-09-14T10:17:15.599Z,7.87
2018-09-14T10:18:19.805Z,7.97
2018-09-14T10:19:23.925Z,8.63
2018-09-14T10:20:28.101Z,8.93
2018-09-14T10:21:32.280Z,8.35
2018-09-14T10:22:36.526Z,12.53
2018-09-14T10:23:40.854Z,6.92
2018-09-14T10:24:45.001Z,7.00
2018-09-14T10:25:49.109Z,8.75
2018-09-14T10:26:53.368Z,13.43
2018-09-14T10:27:57.650Z,6.62
2018-09-14T10:29:01.951Z,7.33
2018-09-14T10:30:06.101Z,7.28
2018-09-14T10:31:10.240Z,7.15
2018-09-14T10:32:14.394Z,8.23
2018-09-14T10:33:18.477Z,7.40
2018-09-14T10:34:22.593Z,7.70
2018-09-14T10:35:26.955Z,8.25
2018-09-14T10:36:31.210Z,6.60
2018-09-14T10:37:35.299Z,6.30
2018-09-14T10:38:39.445Z,6.83
2018-09-14T10:39:43.770Z,8.45
2018-09-14T10:40:48.174Z,8.53
2018-09-14T10:41:52.186Z,7.87
2018-09-14T10:42:56.641Z,7.35
2018-09-14T10:44:00.840Z,10.23
2018-09-14T10:45:05.344Z,10.10
2018-09-14T10:46:09.621Z,9.33
2018-09-14T10:47:13.778Z,7.85
2018-09-14T10:48:18.158Z,7.87
2018-09-14T10:49:22.506Z,8.30
2018-09-14T10:50:27.046Z,7.60
2018-09-14T10:51:31.372Z,9.20
2018-09-14T10:52:35.581Z,7.30
2018-09-14T10:53:39.752Z,7.35
2018-09-14T10:54:44.104Z,6.95
2018-09-14T10:55:48.330Z,7.50
2018-09-14T10:56:52.796Z,8.35
2018-09-14T10:57:57.197Z,8.25
2018-09-14T10:59:01.260Z,7.60
2018-09-14T11:00:05.844Z,6.65
2018-09-14T11:01:10.881Z,7.22
2018-09-14T11:02:15.079Z,11.20
2018-09-14T11:03:19.812Z,12.68
2018-09-14T11:04:24.088Z,11.48
2018-09-14T11:05:28.424Z,12.58
2018-09-14T11:06:32.852Z,7.97
2018-09-14T11:07:36.861Z,8.60
2018-09-14T11:08:41.110Z,7.22
2018-09-14T11:09:45.388Z,10.53
2018-09-14T11:10:49.712Z,10.15
2018-09-14T11:11:53.926Z,7.10
2018-09-14T11:12:58.652Z,6.20
2018-09-14T11:14:02.852Z,7.47
2018-09-14T11:15:07.381Z,7.58
2018-09-14T11:16:11.761Z,7.40
2018-09-14T11:17:16.232Z,6.47
2018-09-14T11:18:20.406Z,8.15
2018-09-14T11:19:24.802Z,7.75
2018-09-14T11:20:29.555Z,7.75
2018-09-14T11:21:34.111Z,6.65
2018-09-14T11:22:38.596Z,7.05
2018-09-14T11:23:42.765Z,7.17
2018-09-14T11:24:46.972Z,6.75
2018-09-14T11:25:51.017Z,7.37
2018-09-14T11:26:55.245Z,7.08
2018-09-14T11:27:59.351Z,6.83
2018-09-14T11:29:03.582Z,6.75
2018-09-14T11:30:08.550Z,6.95
2018-09-14T11:31:12.949Z,7.22
2018-09-14T11:32:17.259Z,9.18
2018-09-14T11:33:21.885Z,7.28
2018-09-14T11:34:25.960Z,9.35
2018-09-14T11:35:30.241Z,8.43
2018-09-14T11:36:34.553Z,7.47
2018-09-14T11:37:38.738Z,6.78
2018-09-14T11:38:43.090Z,11.30
2018-09-14T11:39:47.517Z,13.98
2018-09-14T11:40:51.762Z,8.88
2018-09-14T11:41:56.094Z,8.18
2018-09-14T11:43:00.506Z,7.62
2018-09-14T11:44:04.960Z,6.75
2018-09-14T11:45:09.114Z,6.08
2018-09-14T11:46:13.285Z,7.22
2018-09-14T11:47:17.330Z,6.45
2018-09-14T11:48:21.425Z,8.65
2018-09-14T11:49:25.679Z,10.55
2018-09-14T11:50:29.965Z,5.87
2018-09-14T11:51:34.292Z,5.90
2018-09-14T11:52:38.532Z,6.17
2018-09-14T11:53:43.002Z,6.65
2018-09-14T11:54:47.148Z,6.58
2018-09-14T11:55:51.361Z,6.30
2018-09-14T11:56:55.833Z,9.65
2018-09-14T11:58:00.049Z,6.83
2018-09-14T11:59:04.184Z,6.53
2018-09-14T12:00:08.546Z,6.03
2018-09-14T12:01:12.760Z,9.28
2018-09-14T12:02:17.149Z,9.70
2018-09-14T12:03:21.511Z,7.17
2018-09-14T12:04:25.754Z,6.95
2018-09-14T12:05:30.086Z,8.03
2018-09-14T12:06:34.487Z,5.25
2018-09-14T12:07:39.678Z,5.75
2018-09-14T12:08:43.978Z,5.75
2018-09-14T12:09:48.372Z,5.60
2018-09-14T12:10:52.592Z,5.75
2018-09-14T12:11:56.809Z,6.85
2018-09-14T12:13:01.218Z,5.92
2018-09-14T12:14:05.518Z,5.08
2018-09-14T12:15:09.855Z,6.37
2018-09-14T12:16:13.950Z,5.40
2018-09-14T12:17:18.195Z,4.80
2018-09-14T12:18:22.376Z,5.37
2018-09-14T12:19:26.917Z,5.50
2018-09-14T12:20:31.252Z,7.50
2018-09-14T12:21:35.382Z,6.65
2018-09-14T12:22:39.634Z,9.03
2018-09-14T12:23:43.839Z,7.47
2018-09-14T12:24:47.937Z,7.65
2018-09-14T12:25:52.645Z,6.97
2018-09-14T12:26:56.866Z,6.90
2018-09-14T12:28:00.946Z,7.47
2018-09-14T12:29:05.127Z,7.87
2018-09-14T12:30:09.739Z,7.35
2018-09-14T12:31:14.027Z,7.45
2018-09-14T12:32:18.438Z,5.65
2018-09-14T12:33:22.690Z,5.83
2018-09-14T12:34:26.994Z,6.53
2018-09-14T12:35:31.313Z,7.85
2018-09-14T12:36:35.474Z,7.75
2018-09-14T12:37:39.783Z,12.63
2018-09-14T12:38:44.198Z,11.48
2018-09-14T12:39:48.574Z,13.48
2018-09-14T12:40:53.061Z,7.85
2018-09-14T12:41:57.307Z,14.73
2018-09-14T12:43:01.728Z,10.98
2018-09-14T12:44:06.184Z,6.67
2018-09-14T12:45:10.545Z,7.42
2018-09-14T12:46:14.874Z,5.90
2018-09-14T12:47:19.231Z,6.95
2018-09-14T12:48:23.485Z,6.12
2018-09-14T12:49:28.052Z,5.67
2018-09-14T12:50:32.287Z,5.92
2018-09-14T12:51:36.457Z,6.40
2018-09-14T12:52:40.582Z,7.17
2018-09-14T12:53:44.658Z,5.60
2018-09-14T12:54:48.978Z,5.90
2018-09-14T12:55:53.206Z,5.40
2018-09-14T12:56:57.452Z,6.42
2018-09-14T12:58:01.581Z,6.25
2018-09-14T12:59:05.723Z,6.55
2018-09-14T13:00:09.940Z,7.40
2018-09-14T13:01:14.038Z,8.90
2018-09-14T13:02:18.242Z,6.55
2018-09-14T13:03:22.535Z,5.92
2018-09-14T13:04:26.952Z,5.67
2018-09-14T13:05:31.347Z,6.53
2018-09-14T13:06:35.403Z,5.50
2018-09-14T13:07:39.852Z,5.92
2018-09-14T13:08:44.246Z,8.38
2018-09-14T13:09:48.408Z,6.90
2018-09-14T13:10:52.983Z,7.30
2018-09-14T13:11:57.056Z,5.95
2018-09-14T13:13:01.413Z,6.55
2018-09-14T13:14:06.052Z,8.45
2018-09-14T13:15:10.261Z,9.78
2018-09-14T13:16:14.679Z,7.47
2018-09-14T13:17:19.239Z,7.12
2018-09-14T13:18:23.699Z,5.50
2018-09-14T13:19:28.493Z,5.97
2018-09-14T13:20:32.767Z,6.58
2018-09-14T13:21:36.793Z,5.67
2018-09-14T13:22:41.129Z,9.53
2018-09-14T13:23:45.538Z,5.60
2018-09-14T13:24:49.600Z,5.55
2018-09-14T13:25:53.810Z,4.95
2018-09-14T13:26:58.423Z,4.87
2018-09-14T13:28:02.602Z,4.65
2018-09-14T13:29:06.711Z,6.12
2018-09-14T13:30:10.881Z,5.22
2018-09-14T13:31:15.190Z,7.35
2018-09-14T13:32:19.646Z,5.50
2018-09-14T13:33:23.864Z,4.95
2018-09-14T13:34:28.177Z,4.70
2018-09-14T13:35:32.261Z,4.87
2018-09-14T13:36:36.373Z,5.10
2018-09-14T13:37:40.623Z,4.95
2018-09-14T13:38:45.082Z,4.87
2018-09-14T13:39:49.329Z,5.20
2018-09-14T13:40:53.620Z,4.70
2018-09-14T13:41:58.079Z,5.30
2018-09-14T13:43:02.261Z,4.75
2018-09-14T13:44:06.985Z,5.08
2018-09-14T13:45:11.503Z,4.75
2018-09-14T13:46:15.879Z,5.08
2018-09-14T13:47:20.190Z,4.90
2018-09-14T13:48:24.469Z,4.72
2018-09-14T13:49:29.063Z,6.67
2018-09-14T13:50:33.241Z,4.15
2018-09-14T13:51:38.044Z,5.28
2018-09-14T13:52:42.434Z,4.40
2018-09-14T13:53:46.649Z,4.80
2018-09-14T13:54:50.987Z,4.95
2018-09-14T13:55:55.051Z,4.53
2018-09-14T13:56:59.352Z,5.95
2018-09-14T13:58:03.594Z,4.45
2018-09-14T13:59:07.944Z,4.95
2018-09-14T14:00:12.053Z,6.15
2018-09-14T14:01:16.372Z,4.40
2018-09-14T14:02:20.693Z,5.17
2018-09-14T14:03:24.902Z,6.42
2018-09-14T14:04:29.341Z,5.17
2018-09-14T14:05:33.562Z,4.90
2018-09-14T14:06:37.661Z,4.97